sensor_id;sensor_type;location;lat;lon;timestamp;P1;durP1;ratioP1;P2;durP2;ratioP2
66619;SDS011;53484;51.356;6.732;2022-09-09T00:00:23;5.63;;;1.23;;
66619;SDS011;53484;51.356;6.732;2022-09-09T00:02:52;2.75;;;0.82;;
66619;SDS011;53484;51.356;6.732;2022-09-09T00:05:22;3.85;;;1.25;;
66619;SDS011;53484;51.356;6.732;2022-09-09T00:07:52;5.95;;;1.65;;
66619;SDS011;53484;51.356;6.732;2022-09-09T00:10:21;4.65;;;0.95;;
66619;SDS011;53484;51.356;6.732;2022-09-09T00:12:55;3.95;;;1.02;;
66619;SDS011;53484;51.356;6.732;2022-09-09T00:15:25;5.35;;;1.30;;
66619;SDS011;53484;51.356;6.732;2022-09-09T00:17:54;6.30;;;1.35;;
66619;SDS011;53484;51.356;6.732;2022-09-09T00:20:24;4.50;;;1.40;;
66619;SDS011;53484;51.356;6.732;2022-09-09T00:22:53;5.55;;;1.08;;
66619;SDS011;53484;51.356;6.732;2022-09-09T00:25:23;4.55;;;1.50;;
66619;SDS011;53484;51.356;6.732;2022-09-09T00:27:53;6.32;;;1.30;;
66619;SDS011;53484;51.356;6.732;2022-09-09T00:30:21;4.47;;;1.30;;
66619;SDS011;53484;51.356;6.732;2022-09-09T00:32:49;5.90;;;1.02;;
66619;SDS011;53484;51.356;6.732;2022-09-09T00:35:17;5.67;;;1.10;;
66619;SDS011;53484;51.356;6.732;2022-09-09T00:37:44;4.35;;;1.75;;
66619;SDS011;53484;51.356;6.732;2022-09-09T00:40:16;6.25;;;1.50;;
66619;SDS011;53484;51.356;6.732;2022-09-09T00:42:45;4.65;;;1.48;;
66619;SDS011;53484;51.356;6.732;2022-09-09T00:45:17;3.65;;;1.23;;
66619;SDS011;53484;51.356;6.732;2022-09-09T00:47:45;6.65;;;1.88;;
66619;SDS011;53484;51.356;6.732;2022-09-09T00:50:17;4.07;;;1.73;;
66619;SDS011;53484;51.356;6.732;2022-09-09T00:52:51;4.85;;;1.38;;
66619;SDS011;53484;51.356;6.732;2022-09-09T00:55:19;6.10;;;2.28;;
66619;SDS011;53484;51.356;6.732;2022-09-09T00:57:50;6.85;;;2.60;;
66619;SDS011;53484;51.356;6.732;2022-09-09T01:00:22;5.33;;;1.70;;
66619;SDS011;53484;51.356;6.732;2022-09-09T01:02:52;6.13;;;2.30;;
66619;SDS011;53484;51.356;6.732;2022-09-09T01:05:21;3.97;;;2.20;;
66619;SDS011;53484;51.356;6.732;2022-09-09T01:07:49;5.15;;;2.60;;
66619;SDS011;53484;51.356;6.732;2022-09-09T01:10:17;6.13;;;2.63;;
66619;SDS011;53484;51.356;6.732;2022-09-09T01:12:49;5.80;;;1.90;;
66619;SDS011;53484;51.356;6.732;2022-09-09T01:15:18;4.53;;;2.20;;
66619;SDS011;53484;51.356;6.732;2022-09-09T01:17:50;4.75;;;1.92;;
66619;SDS011;53484;51.356;6.732;2022-09-09T01:20:19;6.07;;;1.92;;
66619;SDS011;53484;51.356;6.732;2022-09-09T01:22:49;5.65;;;2.00;;
66619;SDS011;53484;51.356;6.732;2022-09-09T01:25:20;4.20;;;2.20;;
66619;SDS011;53484;51.356;6.732;2022-09-09T01:27:50;3.33;;;1.55;;
66619;SDS011;53484;51.356;6.732;2022-09-09T01:30:17;4.95;;;1.60;;
66619;SDS011;53484;51.356;6.732;2022-09-09T01:32:44;5.13;;;1.60;;
66619;SDS011;53484;51.356;6.732;2022-09-09T01:35:12;7.20;;;1.90;;
66619;SDS011;53484;51.356;6.732;2022-09-09T01:37:41;7.53;;;1.80;;
66619;SDS011;53484;51.356;6.732;2022-09-09T01:40:07;6.03;;;1.63;;
66619;SDS011;53484;51.356;6.732;2022-09-09T01:42:34;5.82;;;1.77;;
66619;SDS011;53484;51.356;6.732;2022-09-09T01:45:02;6.82;;;1.75;;
66619;SDS011;53484;51.356;6.732;2022-09-09T01:47:28;6.60;;;1.45;;
66619;SDS011;53484;51.356;6.732;2022-09-09T01:49:55;4.15;;;1.25;;
66619;SDS011;53484;51.356;6.732;2022-09-09T01:52:21;5.32;;;1.70;;
66619;SDS011;53484;51.356;6.732;2022-09-09T01:54:47;5.80;;;1.73;;
66619;SDS011;53484;51.356;6.732;2022-09-09T01:57:15;3.63;;;1.33;;
66619;SDS011;53484;51.356;6.732;2022-09-09T01:59:57;6.75;;;2.17;;
66619;SDS011;53484;51.356;6.732;2022-09-09T02:02:29;5.57;;;2.03;;
66619;SDS011;53484;51.356;6.732;2022-09-09T02:04:56;6.32;;;1.55;;
66619;SDS011;53484;51.356;6.732;2022-09-09T02:07:29;9.48;;;2.40;;
66619;SDS011;53484;51.356;6.732;2022-09-09T02:09:57;8.27;;;1.50;;
66619;SDS011;53484;51.356;6.732;2022-09-09T02:12:25;5.63;;;1.60;;
66619;SDS011;53484;51.356;6.732;2022-09-09T02:14:55;5.43;;;1.73;;
66619;SDS011;53484;51.356;6.732;2022-09-09T02:17:22;4.35;;;1.80;;
66619;SDS011;53484;51.356;6.732;2022-09-09T02:19:54;4.57;;;1.67;;
66619;SDS011;53484;51.356;6.732;2022-09-09T02:22:23;6.43;;;1.42;;
66619;SDS011;53484;51.356;6.732;2022-09-09T02:24:50;5.10;;;1.25;;
66619;SDS011;53484;51.356;6.732;2022-09-09T02:27:20;8.27;;;1.20;;
66619;SDS011;53484;51.356;6.732;2022-09-09T02:29:46;5.22;;;1.20;;
66619;SDS011;53484;51.356;6.732;2022-09-09T02:32:15;7.53;;;1.50;;
66619;SDS011;53484;51.356;6.732;2022-09-09T02:34:44;5.40;;;1.27;;
66619;SDS011;53484;51.356;6.732;2022-09-09T02:37:12;5.68;;;1.15;;
66619;SDS011;53484;51.356;6.732;2022-09-09T02:39:41;7.28;;;1.00;;
66619;SDS011;53484;51.356;6.732;2022-09-09T02:42:07;5.57;;;1.23;;
66619;SDS011;53484;51.356;6.732;2022-09-09T02:44:34;5.05;;;1.17;;
66619;SDS011;53484;51.356;6.732;2022-09-09T02:47:06;3.72;;;0.90;;
66619;SDS011;53484;51.356;6.732;2022-09-09T02:49:37;4.55;;;1.20;;
66619;SDS011;53484;51.356;6.732;2022-09-09T02:52:07;5.63;;;1.10;;
66619;SDS011;53484;51.356;6.732;2022-09-09T02:54:35;3.95;;;1.10;;
66619;SDS011;53484;51.356;6.732;2022-09-09T02:57:05;4.72;;;1.20;;
66619;SDS011;53484;51.356;6.732;2022-09-09T02:59:33;6.30;;;1.25;;
66619;SDS011;53484;51.356;6.732;2022-09-09T03:01:59;3.80;;;1.38;;
66619;SDS011;53484;51.356;6.732;2022-09-09T03:04:26;4.38;;;1.00;;
66619;SDS011;53484;51.356;6.732;2022-09-09T03:06:52;5.47;;;1.25;;
66619;SDS011;53484;51.356;6.732;2022-09-09T03:09:18;6.75;;;1.40;;
66619;SDS011;53484;51.356;6.732;2022-09-09T03:11:46;5.38;;;1.02;;
66619;SDS011;53484;51.356;6.732;2022-09-09T03:14:12;5.15;;;1.10;;
66619;SDS011;53484;51.356;6.732;2022-09-09T03:16:39;7.63;;;1.65;;
66619;SDS011;53484;51.356;6.732;2022-09-09T03:19:05;4.78;;;1.40;;
66619;SDS011;53484;51.356;6.732;2022-09-09T03:21:32;5.65;;;0.85;;
66619;SDS011;53484;51.356;6.732;2022-09-09T03:23:58;5.47;;;1.23;;
66619;SDS011;53484;51.356;6.732;2022-09-09T03:26:25;4.35;;;1.20;;
66619;SDS011;53484;51.356;6.732;2022-09-09T03:28:52;7.90;;;1.50;;
66619;SDS011;53484;51.356;6.732;2022-09-09T03:31:19;5.85;;;1.20;;
66619;SDS011;53484;51.356;6.732;2022-09-09T03:33:46;9.25;;;1.65;;
66619;SDS011;53484;51.356;6.732;2022-09-09T03:36:12;5.63;;;1.30;;
66619;SDS011;53484;51.356;6.732;2022-09-09T03:38:39;6.43;;;1.33;;
66619;SDS011;53484;51.356;6.732;2022-09-09T03:41:06;5.65;;;1.60;;
66619;SDS011;53484;51.356;6.732;2022-09-09T03:43:33;5.18;;;1.20;;
66619;SDS011;53484;51.356;6.732;2022-09-09T03:46:00;6.97;;;1.35;;
66619;SDS011;53484;51.356;6.732;2022-09-09T03:48:27;8.43;;;1.50;;
66619;SDS011;53484;51.356;6.732;2022-09-09T03:50:54;5.18;;;1.65;;
66619;SDS011;53484;51.356;6.732;2022-09-09T03:53:23;5.68;;;1.50;;
66619;SDS011;53484;51.356;6.732;2022-09-09T03:55:51;5.40;;;1.30;;
66619;SDS011;53484;51.356;6.732;2022-09-09T03:58:19;6.18;;;1.33;;
66619;SDS011;53484;51.356;6.732;2022-09-09T04:00:52;6.20;;;1.40;;
66619;SDS011;53484;51.356;6.732;2022-09-09T04:03:20;9.63;;;1.52;;
66619;SDS011;53484;51.356;6.732;2022-09-09T04:05:48;7.40;;;1.30;;
66619;SDS011;53484;51.356;6.732;2022-09-09T04:08:14;7.95;;;1.50;;
66619;SDS011;53484;51.356;6.732;2022-09-09T04:10:40;7.07;;;1.60;;
66619;SDS011;53484;51.356;6.732;2022-09-09T04:13:07;4.72;;;1.30;;
66619;SDS011;53484;51.356;6.732;2022-09-09T04:15:33;6.05;;;1.35;;
66619;SDS011;53484;51.356;6.732;2022-09-09T04:17:59;9.50;;;1.50;;
66619;SDS011;53484;51.356;6.732;2022-09-09T04:20:27;9.45;;;1.23;;
66619;SDS011;53484;51.356;6.732;2022-09-09T04:22:55;6.40;;;1.70;;
66619;SDS011;53484;51.356;6.732;2022-09-09T04:25:21;6.80;;;1.80;;
66619;SDS011;53484;51.356;6.732;2022-09-09T04:27:47;6.25;;;1.30;;
66619;SDS011;53484;51.356;6.732;2022-09-09T04:30:19;4.80;;;1.52;;
66619;SDS011;53484;51.356;6.732;2022-09-09T04:32:45;7.90;;;1.40;;
66619;SDS011;53484;51.356;6.732;2022-09-09T04:35:12;6.07;;;1.30;;
66619;SDS011;53484;51.356;6.732;2022-09-09T04:37:39;9.35;;;1.45;;
66619;SDS011;53484;51.356;6.732;2022-09-09T04:40:06;5.00;;;1.60;;
66619;SDS011;53484;51.356;6.732;2022-09-09T04:42:34;6.88;;;1.75;;
66619;SDS011;53484;51.356;6.732;2022-09-09T04:45:01;7.15;;;1.30;;
66619;SDS011;53484;51.356;6.732;2022-09-09T04:47:27;7.90;;;1.58;;
66619;SDS011;53484;51.356;6.732;2022-09-09T04:49:53;8.05;;;1.85;;
66619;SDS011;53484;51.356;6.732;2022-09-09T04:52:20;6.40;;;1.60;;
66619;SDS011;53484;51.356;6.732;2022-09-09T04:54:47;7.90;;;1.60;;
66619;SDS011;53484;51.356;6.732;2022-09-09T04:57:14;7.90;;;2.00;;
66619;SDS011;53484;51.356;6.732;2022-09-09T04:59:40;7.70;;;2.15;;
66619;SDS011;53484;51.356;6.732;2022-09-09T05:02:06;6.32;;;1.73;;
66619;SDS011;53484;51.356;6.732;2022-09-09T05:04:33;5.25;;;1.42;;
66619;SDS011;53484;51.356;6.732;2022-09-09T05:06:59;9.75;;;1.73;;
66619;SDS011;53484;51.356;6.732;2022-09-09T05:09:26;6.78;;;2.00;;
66619;SDS011;53484;51.356;6.732;2022-09-09T05:11:54;11.13;;;1.70;;
66619;SDS011;53484;51.356;6.732;2022-09-09T05:14:21;7.25;;;1.60;;
66619;SDS011;53484;51.356;6.732;2022-09-09T05:16:47;7.00;;;1.40;;
66619;SDS011;53484;51.356;6.732;2022-09-09T05:19:15;8.48;;;1.67;;
66619;SDS011;53484;51.356;6.732;2022-09-09T05:21:44;6.60;;;1.50;;
66619;SDS011;53484;51.356;6.732;2022-09-09T05:24:10;4.70;;;1.30;;
66619;SDS011;53484;51.356;6.732;2022-09-09T05:26:36;7.72;;;1.48;;
66619;SDS011;53484;51.356;6.732;2022-09-09T05:29:04;7.47;;;1.88;;
66619;SDS011;53484;51.356;6.732;2022-09-09T05:31:31;12.15;;;1.58;;
66619;SDS011;53484;51.356;6.732;2022-09-09T05:33:57;6.72;;;1.75;;
66619;SDS011;53484;51.356;6.732;2022-09-09T05:36:24;7.63;;;1.63;;
66619;SDS011;53484;51.356;6.732;2022-09-09T05:38:50;8.75;;;2.05;;
66619;SDS011;53484;51.356;6.732;2022-09-09T05:41:19;6.22;;;1.48;;
66619;SDS011;53484;51.356;6.732;2022-09-09T05:43:45;8.73;;;1.42;;
66619;SDS011;53484;51.356;6.732;2022-09-09T05:46:15;7.63;;;1.52;;
66619;SDS011;53484;51.356;6.732;2022-09-09T05:48:42;6.15;;;1.60;;
66619;SDS011;53484;51.356;6.732;2022-09-09T05:51:12;6.60;;;1.80;;
66619;SDS011;53484;51.356;6.732;2022-09-09T05:53:40;8.80;;;1.67;;
66619;SDS011;53484;51.356;6.732;2022-09-09T05:56:07;8.73;;;1.75;;
66619;SDS011;53484;51.356;6.732;2022-09-09T05:58:35;7.63;;;1.50;;
66619;SDS011;53484;51.356;6.732;2022-09-09T06:01:02;9.40;;;2.42;;
66619;SDS011;53484;51.356;6.732;2022-09-09T06:03:30;7.30;;;2.15;;
66619;SDS011;53484;51.356;6.732;2022-09-09T06:05:57;8.27;;;1.80;;
66619;SDS011;53484;51.356;6.732;2022-09-09T06:08:23;12.25;;;2.28;;
66619;SDS011;53484;51.356;6.732;2022-09-09T06:10:49;9.07;;;2.17;;
66619;SDS011;53484;51.356;6.732;2022-09-09T06:13:16;9.63;;;1.58;;
66619;SDS011;53484;51.356;6.732;2022-09-09T06:15:48;5.88;;;1.38;;
66619;SDS011;53484;51.356;6.732;2022-09-09T06:18:16;7.18;;;1.38;;
66619;SDS011;53484;51.356;6.732;2022-09-09T06:20:52;8.98;;;2.28;;
66619;SDS011;53484;51.356;6.732;2022-09-09T06:23:19;9.85;;;1.55;;
66619;SDS011;53484;51.356;6.732;2022-09-09T06:25:45;7.55;;;1.48;;
66619;SDS011;53484;51.356;6.732;2022-09-09T06:28:11;12.90;;;1.85;;
66619;SDS011;53484;51.356;6.732;2022-09-09T06:30:38;7.80;;;1.48;;
66619;SDS011;53484;51.356;6.732;2022-09-09T06:33:05;9.50;;;1.30;;
66619;SDS011;53484;51.356;6.732;2022-09-09T06:35:31;9.30;;;1.60;;
66619;SDS011;53484;51.356;6.732;2022-09-09T06:37:59;7.72;;;1.60;;
66619;SDS011;53484;51.356;6.732;2022-09-09T06:40:25;8.43;;;2.05;;
66619;SDS011;53484;51.356;6.732;2022-09-09T06:42:51;5.75;;;1.40;;
66619;SDS011;53484;51.356;6.732;2022-09-09T06:45:18;10.02;;;1.60;;
66619;SDS011;53484;51.356;6.732;2022-09-09T06:47:44;7.57;;;1.23;;
66619;SDS011;53484;51.356;6.732;2022-09-09T06:50:10;8.00;;;1.45;;
66619;SDS011;53484;51.356;6.732;2022-09-09T06:52:36;6.20;;;1.48;;
66619;SDS011;53484;51.356;6.732;2022-09-09T06:55:05;9.07;;;2.17;;
66619;SDS011;53484;51.356;6.732;2022-09-09T06:57:31;11.75;;;1.98;;
66619;SDS011;53484;51.356;6.732;2022-09-09T06:59:58;6.82;;;1.35;;
66619;SDS011;53484;51.356;6.732;2022-09-09T07:02:24;6.38;;;1.42;;
66619;SDS011;53484;51.356;6.732;2022-09-09T07:04:50;8.77;;;1.30;;
66619;SDS011;53484;51.356;6.732;2022-09-09T07:07:17;6.57;;;1.23;;
66619;SDS011;53484;51.356;6.732;2022-09-09T07:09:43;7.38;;;1.15;;
66619;SDS011;53484;51.356;6.732;2022-09-09T07:12:13;9.27;;;1.63;;
66619;SDS011;53484;51.356;6.732;2022-09-09T07:14:39;6.25;;;1.10;;
66619;SDS011;53484;51.356;6.732;2022-09-09T07:17:06;5.22;;;1.30;;
66619;SDS011;53484;51.356;6.732;2022-09-09T07:19:33;9.90;;;1.17;;
66619;SDS011;53484;51.356;6.732;2022-09-09T07:22:00;8.27;;;1.25;;
66619;SDS011;53484;51.356;6.732;2022-09-09T07:24:28;7.60;;;1.20;;
66619;SDS011;53484;51.356;6.732;2022-09-09T07:26:55;8.38;;;1.83;;
66619;SDS011;53484;51.356;6.732;2022-09-09T07:29:22;14.00;;;1.92;;
66619;SDS011;53484;51.356;6.732;2022-09-09T07:31:49;6.50;;;1.20;;
66619;SDS011;53484;51.356;6.732;2022-09-09T07:34:15;6.65;;;1.27;;
66619;SDS011;53484;51.356;6.732;2022-09-09T07:36:41;6.78;;;1.13;;
66619;SDS011;53484;51.356;6.732;2022-09-09T07:39:08;6.82;;;1.20;;
66619;SDS011;53484;51.356;6.732;2022-09-09T07:41:35;7.18;;;1.10;;
66619;SDS011;53484;51.356;6.732;2022-09-09T07:44:05;8.30;;;1.35;;
66619;SDS011;53484;51.356;6.732;2022-09-09T07:46:34;8.02;;;1.20;;
66619;SDS011;53484;51.356;6.732;2022-09-09T07:49:01;10.85;;;1.27;;
66619;SDS011;53484;51.356;6.732;2022-09-09T07:51:28;10.40;;;1.52;;
66619;SDS011;53484;51.356;6.732;2022-09-09T07:53:56;6.85;;;1.00;;
66619;SDS011;53484;51.356;6.732;2022-09-09T07:56:22;9.27;;;1.20;;
66619;SDS011;53484;51.356;6.732;2022-09-09T07:58:50;8.68;;;1.45;;
66619;SDS011;53484;51.356;6.732;2022-09-09T08:01:17;6.35;;;1.30;;
66619;SDS011;53484;51.356;6.732;2022-09-09T08:03:45;6.30;;;0.85;;
66619;SDS011;53484;51.356;6.732;2022-09-09T08:06:12;8.07;;;1.25;;
66619;SDS011;53484;51.356;6.732;2022-09-09T08:08:39;7.18;;;0.98;;
66619;SDS011;53484;51.356;6.732;2022-09-09T08:11:07;5.63;;;1.10;;
66619;SDS011;53484;51.356;6.732;2022-09-09T08:13:34;6.28;;;1.30;;
66619;SDS011;53484;51.356;6.732;2022-09-09T08:16:04;10.30;;;1.02;;
66619;SDS011;53484;51.356;6.732;2022-09-09T08:18:30;10.63;;;1.20;;
66619;SDS011;53484;51.356;6.732;2022-09-09T08:20:58;5.60;;;1.15;;
66619;SDS011;53484;51.356;6.732;2022-09-09T08:23:30;6.65;;;1.20;;
66619;SDS011;53484;51.356;6.732;2022-09-09T08:26:02;7.03;;;1.20;;
66619;SDS011;53484;51.356;6.732;2022-09-09T08:28:29;7.97;;;1.00;;
66619;SDS011;53484;51.356;6.732;2022-09-09T08:30:56;10.63;;;1.38;;
66619;SDS011;53484;51.356;6.732;2022-09-09T08:33:22;7.68;;;1.25;;
66619;SDS011;53484;51.356;6.732;2022-09-09T08:35:50;7.15;;;1.13;;
66619;SDS011;53484;51.356;6.732;2022-09-09T08:38:19;6.60;;;1.20;;
66619;SDS011;53484;51.356;6.732;2022-09-09T08:40:46;7.63;;;1.35;;
66619;SDS011;53484;51.356;6.732;2022-09-09T08:43:14;6.25;;;1.10;;
66619;SDS011;53484;51.356;6.732;2022-09-09T08:45:43;8.55;;;1.10;;
66619;SDS011;53484;51.356;6.732;2022-09-09T08:48:19;6.13;;;1.55;;
66619;SDS011;53484;51.356;6.732;2022-09-09T08:50:49;6.63;;;1.30;;
66619;SDS011;53484;51.356;6.732;2022-09-09T08:53:19;7.93;;;1.15;;
66619;SDS011;53484;51.356;6.732;2022-09-09T08:55:47;7.85;;;1.20;;
66619;SDS011;53484;51.356;6.732;2022-09-09T08:58:14;5.65;;;0.90;;
66619;SDS011;53484;51.356;6.732;2022-09-09T09:00:47;6.47;;;1.10;;
66619;SDS011;53484;51.356;6.732;2022-09-09T09:03:19;7.90;;;1.00;;
66619;SDS011;53484;51.356;6.732;2022-09-09T09:05:50;6.63;;;1.23;;
66619;SDS011;53484;51.356;6.732;2022-09-09T09:08:24;6.13;;;0.90;;
66619;SDS011;53484;51.356;6.732;2022-09-09T09:10:54;5.68;;;0.88;;
66619;SDS011;53484;51.356;6.732;2022-09-09T09:13:23;7.25;;;1.10;;
66619;SDS011;53484;51.356;6.732;2022-09-09T09:15:52;11.02;;;0.95;;
66619;SDS011;53484;51.356;6.732;2022-09-09T09:18:21;6.93;;;1.15;;
66619;SDS011;53484;51.356;6.732;2022-09-09T09:20:50;7.63;;;0.90;;
66619;SDS011;53484;51.356;6.732;2022-09-09T09:23:19;5.55;;;0.90;;
66619;SDS011;53484;51.356;6.732;2022-09-09T09:25:48;8.25;;;1.08;;
66619;SDS011;53484;51.356;6.732;2022-09-09T09:28:17;7.35;;;1.10;;
66619;SDS011;53484;51.356;6.732;2022-09-09T09:30:44;8.15;;;1.20;;
66619;SDS011;53484;51.356;6.732;2022-09-09T09:33:14;5.68;;;0.98;;
66619;SDS011;53484;51.356;6.732;2022-09-09T09:35:41;7.25;;;1.10;;
66619;SDS011;53484;51.356;6.732;2022-09-09T09:38:10;9.80;;;1.15;;
66619;SDS011;53484;51.356;6.732;2022-09-09T09:40:49;6.53;;;1.38;;
66619;SDS011;53484;51.356;6.732;2022-09-09T09:43:18;8.27;;;1.40;;
66619;SDS011;53484;51.356;6.732;2022-09-09T09:45:46;6.50;;;1.08;;
66619;SDS011;53484;51.356;6.732;2022-09-09T09:48:13;5.40;;;0.90;;
66619;SDS011;53484;51.356;6.732;2022-09-09T09:50:46;8.00;;;1.00;;
66619;SDS011;53484;51.356;6.732;2022-09-09T09:53:17;6.93;;;1.20;;
66619;SDS011;53484;51.356;6.732;2022-09-09T09:55:46;7.20;;;1.00;;
66619;SDS011;53484;51.356;6.732;2022-09-09T09:58:15;5.43;;;0.90;;
66619;SDS011;53484;51.356;6.732;2022-09-09T10:00:47;4.95;;;0.80;;
66619;SDS011;53484;51.356;6.732;2022-09-09T10:03:19;6.82;;;0.80;;
66619;SDS011;53484;51.356;6.732;2022-09-09T10:05:46;4.88;;;0.68;;
66619;SDS011;53484;51.356;6.732;2022-09-09T10:08:13;5.50;;;0.98;;
66619;SDS011;53484;51.356;6.732;2022-09-09T10:13:27;5.22;;;0.80;;
66619;SDS011;53484;51.356;6.732;2022-09-09T10:16:01;3.38;;;0.80;;
66619;SDS011;53484;51.356;6.732;2022-09-09T10:18:46;4.75;;;0.75;;
66619;SDS011;53484;51.356;6.732;2022-09-09T10:21:27;6.30;;;0.90;;
66619;SDS011;53484;51.356;6.732;2022-09-09T10:24:01;9.07;;;1.13;;
66619;SDS011;53484;51.356;6.732;2022-09-09T10:26:32;7.10;;;1.25;;
66619;SDS011;53484;51.356;6.732;2022-09-09T10:29:05;7.47;;;0.73;;
66619;SDS011;53484;51.356;6.732;2022-09-09T10:31:39;5.20;;;0.60;;
66619;SDS011;53484;51.356;6.732;2022-09-09T10:34:12;4.75;;;0.70;;
66619;SDS011;53484;51.356;6.732;2022-09-09T10:36:46;7.32;;;0.80;;
66619;SDS011;53484;51.356;6.732;2022-09-09T10:39:15;11.15;;;1.10;;
66619;SDS011;53484;51.356;6.732;2022-09-09T10:41:45;2.53;;;0.60;;
66619;SDS011;53484;51.356;6.732;2022-09-09T10:44:20;5.10;;;0.70;;
66619;SDS011;53484;51.356;6.732;2022-09-09T10:46:55;4.63;;;0.70;;
66619;SDS011;53484;51.356;6.732;2022-09-09T10:49:25;5.03;;;0.77;;
66619;SDS011;53484;51.356;6.732;2022-09-09T10:51:56;5.53;;;1.15;;
66619;SDS011;53484;51.356;6.732;2022-09-09T10:54:28;6.32;;;0.85;;
66619;SDS011;53484;51.356;6.732;2022-09-09T10:56:57;7.55;;;1.08;;
66619;SDS011;53484;51.356;6.732;2022-09-09T10:59:27;3.95;;;0.80;;
66619;SDS011;53484;51.356;6.732;2022-09-09T11:01:56;4.82;;;0.73;;
66619;SDS011;53484;51.356;6.732;2022-09-09T11:04:26;3.30;;;0.80;;
66619;SDS011;53484;51.356;6.732;2022-09-09T11:06:56;4.95;;;0.90;;
66619;SDS011;53484;51.356;6.732;2022-09-09T11:09:23;4.35;;;0.93;;
66619;SDS011;53484;51.356;6.732;2022-09-09T11:11:52;4.70;;;0.80;;
66619;SDS011;53484;51.356;6.732;2022-09-09T11:14:20;8.15;;;0.80;;
66619;SDS011;53484;51.356;6.732;2022-09-09T11:16:51;6.57;;;1.02;;
66619;SDS011;53484;51.356;6.732;2022-09-09T11:19:21;6.18;;;0.95;;
66619;SDS011;53484;51.356;6.732;2022-09-09T11:21:50;7.07;;;0.98;;
66619;SDS011;53484;51.356;6.732;2022-09-09T11:24:20;3.95;;;0.80;;
66619;SDS011;53484;51.356;6.732;2022-09-09T11:26:49;4.75;;;1.42;;
66619;SDS011;53484;51.356;6.732;2022-09-09T11:29:23;5.18;;;0.63;;
66619;SDS011;53484;51.356;6.732;2022-09-09T11:31:56;4.70;;;0.73;;
66619;SDS011;53484;51.356;6.732;2022-09-09T11:34:33;6.77;;;0.87;;
66619;SDS011;53484;51.356;6.732;2022-09-09T11:37:10;5.32;;;1.00;;
66619;SDS011;53484;51.356;6.732;2022-09-09T11:39:50;8.20;;;0.65;;
66619;SDS011;53484;51.356;6.732;2022-09-09T11:42:20;5.88;;;0.80;;
66619;SDS011;53484;51.356;6.732;2022-09-09T11:44:47;2.35;;;0.50;;
66619;SDS011;53484;51.356;6.732;2022-09-09T11:47:20;4.05;;;0.70;;
66619;SDS011;53484;51.356;6.732;2022-09-09T11:49:48;5.03;;;1.33;;
66619;SDS011;53484;51.356;6.732;2022-09-09T11:52:20;6.13;;;0.90;;
66619;SDS011;53484;51.356;6.732;2022-09-09T11:54:48;5.10;;;0.70;;
66619;SDS011;53484;51.356;6.732;2022-09-09T11:59:49;4.93;;;0.80;;
66619;SDS011;53484;51.356;6.732;2022-09-09T12:02:18;2.90;;;0.73;;
66619;SDS011;53484;51.356;6.732;2022-09-09T12:04:49;4.47;;;0.80;;
66619;SDS011;53484;51.356;6.732;2022-09-09T12:07:29;4.90;;;0.55;;
66619;SDS011;53484;51.356;6.732;2022-09-09T12:09:56;4.15;;;0.75;;
66619;SDS011;53484;51.356;6.732;2022-09-09T12:12:27;2.90;;;0.80;;
66619;SDS011;53484;51.356;6.732;2022-09-09T12:14:57;3.33;;;0.60;;
66619;SDS011;53484;51.356;6.732;2022-09-09T12:17:25;3.90;;;0.82;;
66619;SDS011;53484;51.356;6.732;2022-09-09T12:20:00;4.90;;;0.80;;
66619;SDS011;53484;51.356;6.732;2022-09-09T12:22:31;3.55;;;0.70;;
66619;SDS011;53484;51.356;6.732;2022-09-09T12:25:01;5.85;;;0.63;;
66619;SDS011;53484;51.356;6.732;2022-09-09T12:27:33;5.05;;;0.80;;
66619;SDS011;53484;51.356;6.732;2022-09-09T12:30:03;3.67;;;0.65;;
66619;SDS011;53484;51.356;6.732;2022-09-09T12:32:31;5.20;;;1.00;;
66619;SDS011;53484;51.356;6.732;2022-09-09T12:34:58;5.63;;;0.88;;
66619;SDS011;53484;51.356;6.732;2022-09-09T12:37:29;30.20;;;2.00;;
66619;SDS011;53484;51.356;6.732;2022-09-09T12:39:58;5.50;;;1.20;;
66619;SDS011;53484;51.356;6.732;2022-09-09T12:42:25;6.13;;;1.30;;
66619;SDS011;53484;51.356;6.732;2022-09-09T12:44:52;8.63;;;1.95;;
66619;SDS011;53484;51.356;6.732;2022-09-09T12:47:18;5.32;;;1.80;;
66619;SDS011;53484;51.356;6.732;2022-09-09T12:49:46;6.68;;;1.40;;
66619;SDS011;53484;51.356;6.732;2022-09-09T12:52:17;6.25;;;2.03;;
66619;SDS011;53484;51.356;6.732;2022-09-09T12:54:46;5.57;;;1.55;;
66619;SDS011;53484;51.356;6.732;2022-09-09T12:57:13;6.10;;;1.38;;
66619;SDS011;53484;51.356;6.732;2022-09-09T12:59:40;15.02;;;2.22;;
66619;SDS011;53484;51.356;6.732;2022-09-09T13:02:11;11.50;;;3.00;;
66619;SDS011;53484;51.356;6.732;2022-09-09T13:04:42;8.40;;;2.30;;
66619;SDS011;53484;51.356;6.732;2022-09-09T13:07:09;8.57;;;2.05;;
66619;SDS011;53484;51.356;6.732;2022-09-09T13:09:36;8.73;;;2.70;;
66619;SDS011;53484;51.356;6.732;2022-09-09T13:12:04;6.45;;;1.80;;
66619;SDS011;53484;51.356;6.732;2022-09-09T13:14:32;7.85;;;2.03;;
66619;SDS011;53484;51.356;6.732;2022-09-09T13:17:03;6.97;;;2.00;;
66619;SDS011;53484;51.356;6.732;2022-09-09T13:19:31;6.03;;;1.65;;
66619;SDS011;53484;51.356;6.732;2022-09-09T13:21:58;6.53;;;1.10;;
66619;SDS011;53484;51.356;6.732;2022-09-09T13:24:26;4.78;;;1.38;;
66619;SDS011;53484;51.356;6.732;2022-09-09T13:26:55;5.63;;;1.42;;
66619;SDS011;53484;51.356;6.732;2022-09-09T13:29:23;4.65;;;1.30;;
66619;SDS011;53484;51.356;6.732;2022-09-09T13:31:50;4.97;;;1.52;;
66619;SDS011;53484;51.356;6.732;2022-09-09T13:34:28;3.78;;;0.85;;
66619;SDS011;53484;51.356;6.732;2022-09-09T13:36:55;4.88;;;1.20;;
66619;SDS011;53484;51.356;6.732;2022-09-09T13:39:23;6.38;;;0.60;;
66619;SDS011;53484;51.356;6.732;2022-09-09T13:41:50;5.78;;;1.00;;
66619;SDS011;53484;51.356;6.732;2022-09-09T13:44:19;4.90;;;1.00;;
66619;SDS011;53484;51.356;6.732;2022-09-09T13:46:58;3.97;;;0.77;;
66619;SDS011;53484;51.356;6.732;2022-09-09T13:49:26;4.03;;;0.90;;
66619;SDS011;53484;51.356;6.732;2022-09-09T13:52:02;5.00;;;1.17;;
66619;SDS011;53484;51.356;6.732;2022-09-09T13:54:28;4.47;;;1.20;;
66619;SDS011;53484;51.356;6.732;2022-09-09T13:56:55;5.00;;;0.90;;
66619;SDS011;53484;51.356;6.732;2022-09-09T13:59:22;4.80;;;0.90;;
66619;SDS011;53484;51.356;6.732;2022-09-09T14:01:50;6.45;;;1.00;;
66619;SDS011;53484;51.356;6.732;2022-09-09T14:04:17;6.32;;;0.80;;
66619;SDS011;53484;51.356;6.732;2022-09-09T14:06:45;4.70;;;1.00;;
66619;SDS011;53484;51.356;6.732;2022-09-09T14:09:12;6.43;;;0.90;;
66619;SDS011;53484;51.356;6.732;2022-09-09T14:11:39;4.90;;;1.50;;
66619;SDS011;53484;51.356;6.732;2022-09-09T14:14:06;4.28;;;1.00;;
66619;SDS011;53484;51.356;6.732;2022-09-09T14:16:32;4.32;;;1.15;;
66619;SDS011;53484;51.356;6.732;2022-09-09T14:19:00;4.78;;;1.45;;
66619;SDS011;53484;51.356;6.732;2022-09-09T14:21:27;5.20;;;0.90;;
66619;SDS011;53484;51.356;6.732;2022-09-09T14:23:53;3.80;;;0.95;;
66619;SDS011;53484;51.356;6.732;2022-09-09T14:26:19;5.90;;;0.88;;
66619;SDS011;53484;51.356;6.732;2022-09-09T14:28:46;5.20;;;1.10;;
66619;SDS011;53484;51.356;6.732;2022-09-09T14:31:13;8.88;;;1.08;;
66619;SDS011;53484;51.356;6.732;2022-09-09T14:33:39;3.90;;;0.80;;
66619;SDS011;53484;51.356;6.732;2022-09-09T14:36:07;3.13;;;0.50;;
66619;SDS011;53484;51.356;6.732;2022-09-09T14:38:34;2.22;;;0.40;;
66619;SDS011;53484;51.356;6.732;2022-09-09T14:41:04;4.15;;;0.50;;
66619;SDS011;53484;51.356;6.732;2022-09-09T14:43:30;4.25;;;0.70;;
66619;SDS011;53484;51.356;6.732;2022-09-09T14:45:57;2.70;;;0.70;;
66619;SDS011;53484;51.356;6.732;2022-09-09T14:48:23;4.38;;;0.68;;
66619;SDS011;53484;51.356;6.732;2022-09-09T14:50:50;2.23;;;0.60;;
66619;SDS011;53484;51.356;6.732;2022-09-09T14:53:17;2.17;;;0.50;;
66619;SDS011;53484;51.356;6.732;2022-09-09T14:55:43;5.88;;;0.82;;
66619;SDS011;53484;51.356;6.732;2022-09-09T14:58:11;4.10;;;0.60;;
66619;SDS011;53484;51.356;6.732;2022-09-09T15:00:38;3.42;;;1.20;;